Lena, Mississippi
Current Conditions -  °F | °C
As of 9:54 AM on Wednesday 28 Jan 2015 (Local Time) from KJAN Reporting Station
Clear Clear  
Wind Chill: 52°   Ceiling: Unl
Heat Index: 52°   Visibility: 10mi
Dew Point: 31°   Wind: 8mph
Humidity: 45%   Direction: 110°ESE
Pressure: 30.3"   Gusts: NA
Location:  32.59°N, 89.61°W
Report Text: KJAN 281554Z 11007KT 10SM CLR 11/M01 A3030 RMK AO2 SLP261 T01111006
Loading
Personal Weather Stations






























Interactive Weather Map New forecast layout! Learn more

10-Day Weather Forecast

Advertisements
Track Severe Weather on mobile